Time;durP1;ratioP1;P1;durP2;ratioP2;P2;SDS_P1;SDS_P2;PMS_P1;PMS_P2;Temp;Humidity;BMP_temperature;BMP_pressure;BME280_temperature;BME280_humidity;BME280_pressure;Samples;Min_cycle;Max_cycle;Signal;HPM_P1;HPM_P2
2020/12/31 00:01:24;;;;;;;16.63;12.03;;;3.30;99.90;;;;;;5020132;28;20673;-64
2020/12/31 00:03:51;;;;;;;15.53;12.70;;;3.30;99.90;;;;;;5021714;28;20196;-62
2020/12/31 00:06:18;;;;;;;17.07;11.67;;;3.30;99.90;;;;;;5019885;28;20693;-63
2020/12/31 00:08:45;;;;;;;15.00;12.47;;;3.30;99.90;;;;;;5020416;28;20192;-62
2020/12/31 00:11:11;;;;;;;15.10;12.43;;;3.30;99.90;;;;;;5023151;28;20207;-62
2020/12/31 00:13:38;;;;;;;12.80;11.40;;;3.30;99.90;;;;;;5019757;28;20205;-63
2020/12/31 00:16:05;;;;;;;17.17;11.87;;;3.30;99.90;;;;;;5021093;28;20258;-62
2020/12/31 00:18:33;;;;;;;15.47;12.67;;;3.30;99.90;;;;;;5020762;28;20342;-62
2020/12/31 00:20:59;;;;;;;20.37;13.33;;;3.30;99.90;;;;;;5020111;28;20201;-63
2020/12/31 00:23:26;;;;;;;18.43;13.43;;;3.30;99.90;;;;;;5020388;28;20197;-63
2020/12/31 00:25:54;;;;;;;17.77;12.63;;;3.30;99.90;;;;;;5020369;28;20243;-63
2020/12/31 00:28:22;;;;;;;16.40;12.53;;;3.40;99.90;;;;;;5021900;28;20665;-63
2020/12/31 00:30:50;;;;;;;15.90;13.20;;;3.40;99.90;;;;;;5019249;28;20258;-63
2020/12/31 00:33:17;;;;;;;14.40;12.80;;;3.40;99.90;;;;;;5020260;28;20205;-63
2020/12/31 00:35:45;;;;;;;14.93;12.20;;;3.40;99.90;;;;;;5018248;28;20208;-63
2020/12/31 00:38:12;;;;;;;20.37;12.90;;;3.30;99.90;;;;;;5020429;28;20205;-64
2020/12/31 00:40:39;;;;;;;16.50;12.27;;;3.30;99.90;;;;;;5020033;28;20201;-63
2020/12/31 00:43:05;;;;;;;18.37;13.00;;;3.30;99.90;;;;;;5020202;28;20197;-63
2020/12/31 00:45:32;;;;;;;16.77;12.63;;;3.20;99.90;;;;;;5020044;28;20216;-64
2020/12/31 00:47:58;;;;;;;17.03;12.07;;;3.20;99.90;;;;;;5021133;28;20197;-63
2020/12/31 00:50:25;;;;;;;17.27;13.63;;;3.20;99.90;;;;;;5019569;28;20204;-63
2020/12/31 00:52:53;;;;;;;19.03;13.70;;;3.30;99.90;;;;;;5021608;28;20204;-62
2020/12/31 00:55:19;;;;;;;15.33;13.13;;;3.30;99.90;;;;;;5020176;28;20219;-63
2020/12/31 00:57:46;;;;;;;16.13;12.53;;;3.20;99.90;;;;;;5019892;28;20235;-63
2020/12/31 01:00:13;;;;;;;15.37;12.70;;;3.20;99.90;;;;;;5020228;28;20204;-63
2020/12/31 01:02:40;;;;;;;15.07;12.80;;;3.10;99.90;;;;;;5021305;28;20665;-63
2020/12/31 01:05:08;;;;;;;16.43;12.73;;;3.10;99.90;;;;;;5018738;28;20873;-62
2020/12/31 01:07:34;;;;;;;17.63;12.63;;;3.10;99.90;;;;;;5020393;28;20220;-63
2020/12/31 01:10:04;;;;;;;16.53;12.33;;;3.10;99.90;;;;;;5020924;28;20255;-63
2020/12/31 01:12:31;;;;;;;16.43;12.90;;;3.20;99.90;;;;;;5019222;28;20220;-63
2020/12/31 01:14:57;;;;;;;18.83;13.80;;;3.20;99.90;;;;;;5019296;28;20547;-63
2020/12/31 01:17:25;;;;;;;15.43;13.30;;;3.20;99.90;;;;;;5023459;28;20228;-62
2020/12/31 01:19:51;;;;;;;17.10;12.90;;;3.20;99.90;;;;;;5018853;28;20201;-62
2020/12/31 01:22:18;;;;;;;16.40;13.27;;;3.20;99.90;;;;;;5019755;28;20203;-64
2020/12/31 01:24:45;;;;;;;15.93;12.93;;;3.20;99.90;;;;;;5019353;28;20565;-62
2020/12/31 01:27:13;;;;;;;16.03;13.40;;;3.20;99.90;;;;;;5019264;28;20571;-63
2020/12/31 01:29:40;;;;;;;18.73;14.40;;;3.20;99.90;;;;;;5018867;28;20295;-63
2020/12/31 01:32:07;;;;;;;17.57;14.20;;;3.20;99.90;;;;;;5021553;28;20212;-62
2020/12/31 01:34:34;;;;;;;17.43;14.17;;;3.20;99.90;;;;;;5020226;28;20247;-64
2020/12/31 01:37:01;;;;;;;17.83;15.03;;;3.10;99.90;;;;;;5018144;28;20211;-64
2020/12/31 01:39:27;;;;;;;15.77;13.70;;;3.20;99.90;;;;;;5019942;28;20915;-63
2020/12/31 01:41:54;;;;;;;18.30;14.60;;;3.10;99.90;;;;;;5017183;28;20197;-63
2020/12/31 01:44:21;;;;;;;17.30;13.40;;;3.10;99.90;;;;;;5019327;28;20215;-63
2020/12/31 01:46:48;;;;;;;16.10;14.17;;;3.10;99.90;;;;;;5019311;28;20232;-64
2020/12/31 01:49:18;;;;;;;17.67;14.50;;;3.20;99.90;;;;;;5019988;28;20347;-62
2020/12/31 01:51:47;;;;;;;21.87;14.37;;;3.20;99.90;;;;;;5020680;28;20231;-62
2020/12/31 01:54:15;;;;;;;18.33;14.50;;;3.30;99.90;;;;;;5017500;28;20239;-64
2020/12/31 01:56:43;;;;;;;16.67;14.83;;;3.30;99.90;;;;;;5020960;28;20205;-62
2020/12/31 01:59:11;;;;;;;17.13;13.87;;;3.40;99.90;;;;;;5018425;28;20220;-64
2020/12/31 02:01:39;;;;;;;21.37;15.33;;;3.40;99.90;;;;;;5019629;28;20629;-62
2020/12/31 02:04:05;;;;;;;19.30;15.13;;;3.50;99.90;;;;;;5020089;28;20200;-63
2020/12/31 02:06:33;;;;;;;17.77;14.57;;;3.50;99.90;;;;;;5018187;28;20220;-63
2020/12/31 02:09:00;;;;;;;19.00;15.03;;;3.60;99.90;;;;;;5017174;28;20200;-63
2020/12/31 02:11:26;;;;;;;18.77;15.50;;;3.70;99.90;;;;;;5016002;28;20204;-63
2020/12/31 02:13:54;;;;;;;19.37;14.50;;;3.70;99.90;;;;;;5020783;28;20223;-63
2020/12/31 02:16:22;;;;;;;19.57;16.10;;;3.70;99.90;;;;;;5021182;28;21791;-62
2020/12/31 02:18:56;;;;;;;18.97;15.30;;;3.70;99.90;;;;;;5016278;28;20200;-63
2020/12/31 02:21:25;;;;;;;16.97;14.93;;;3.80;99.90;;;;;;5015676;28;20245;-64
2020/12/31 02:23:52;;;;;;;19.43;15.90;;;3.80;99.90;;;;;;5016665;28;20211;-62
2020/12/31 02:26:22;;;;;;;17.37;14.90;;;3.80;99.90;;;;;;5017163;28;20235;-63
2020/12/31 02:28:48;;;;;;;17.57;14.67;;;3.80;99.90;;;;;;5019383;28;20200;-62
2020/12/31 02:31:15;;;;;;;17.13;14.30;;;3.80;99.90;;;;;;5018057;28;20197;-64
2020/12/31 02:33:45;;;;;;;19.07;14.97;;;3.80;99.90;;;;;;5019358;28;20227;-64
2020/12/31 02:36:13;;;;;;;18.63;15.13;;;3.80;99.90;;;;;;5017476;28;20247;-64
2020/12/31 02:38:40;;;;;;;17.10;15.20;;;3.80;99.90;;;;;;5015457;28;20255;-62
2020/12/31 02:41:08;;;;;;;19.53;15.03;;;3.80;99.90;;;;;;5017324;28;20204;-63
2020/12/31 02:43:35;;;;;;;20.30;15.03;;;3.80;99.90;;;;;;5016073;28;20211;-64
2020/12/31 02:46:02;;;;;;;18.20;14.47;;;3.90;99.90;;;;;;5021528;28;20217;-62
2020/12/31 02:48:28;;;;;;;17.27;14.23;;;3.90;99.90;;;;;;5020886;28;20204;-62
2020/12/31 02:50:54;;;;;;;16.53;13.40;;;3.90;99.90;;;;;;5018847;28;20791;-64
2020/12/31 02:53:21;;;;;;;16.33;13.40;;;3.90;99.90;;;;;;5017153;28;20197;-66
2020/12/31 02:55:47;;;;;;;15.60;13.53;;;3.90;99.90;;;;;;5018978;28;20219;-64
2020/12/31 02:58:15;;;;;;;15.30;13.07;;;3.90;99.90;;;;;;5018494;28;20211;-63
2020/12/31 03:00:42;;;;;;;14.47;12.63;;;3.90;99.90;;;;;;5018156;28;20208;-63
2020/12/31 03:03:09;;;;;;;14.60;12.53;;;3.80;99.90;;;;;;5020323;28;20250;-62
2020/12/31 03:05:36;;;;;;;18.17;12.13;;;3.80;99.90;;;;;;5018285;28;20192;-63
2020/12/31 03:08:02;;;;;;;14.87;13.27;;;3.80;99.90;;;;;;5018647;28;20228;-63
2020/12/31 03:10:29;;;;;;;14.67;12.10;;;3.80;99.90;;;;;;5016985;28;20209;-64
2020/12/31 03:12:55;;;;;;;12.47;11.17;;;3.70;99.90;;;;;;5020365;28;20204;-63
2020/12/31 03:15:23;;;;;;;13.27;11.63;;;3.70;99.90;;;;;;5018374;28;20751;-64
2020/12/31 03:17:51;;;;;;;14.83;11.93;;;3.70;99.90;;;;;;5019390;28;20204;-63
2020/12/31 03:20:18;;;;;;;12.97;11.37;;;3.70;99.90;;;;;;5017597;28;20204;-62
2020/12/31 03:22:44;;;;;;;14.63;11.03;;;3.60;99.90;;;;;;5018106;28;20254;-64
2020/12/31 03:25:11;;;;;;;14.27;11.70;;;3.60;99.90;;;;;;5019309;28;20588;-64
2020/12/31 03:27:37;;;;;;;14.60;11.83;;;3.50;99.90;;;;;;5018118;28;20453;-63
2020/12/31 03:30:04;;;;;;;14.27;11.97;;;3.50;99.90;;;;;;5017112;28;20224;-63
2020/12/31 03:32:32;;;;;;;14.93;11.67;;;3.50;99.90;;;;;;5018442;28;20200;-64
2020/12/31 03:34:58;;;;;;;14.60;12.00;;;3.50;99.90;;;;;;5015643;28;20208;-63
2020/12/31 03:37:25;;;;;;;13.00;11.37;;;3.50;99.90;;;;;;5017518;28;20197;-62
2020/12/31 03:39:52;;;;;;;14.07;11.37;;;3.40;99.90;;;;;;5019120;28;20205;-62
2020/12/31 03:42:18;;;;;;;14.73;12.57;;;3.40;99.90;;;;;;5020605;28;20208;-62
2020/12/31 03:44:45;;;;;;;14.00;12.07;;;3.40;99.90;;;;;;5020226;28;20197;-64
2020/12/31 03:47:12;;;;;;;14.17;11.70;;;3.40;99.90;;;;;;5021444;28;20220;-64
2020/12/31 03:49:39;;;;;;;13.07;11.67;;;3.40;99.90;;;;;;5021034;28;20200;-64
2020/12/31 03:52:06;;;;;;;15.33;11.40;;;3.30;99.90;;;;;;5020860;28;20196;-64
2020/12/31 03:54:32;;;;;;;13.80;12.13;;;3.40;99.90;;;;;;5020101;28;20546;-64
2020/12/31 03:56:59;;;;;;;17.40;12.27;;;3.30;99.90;;;;;;5016847;28;20685;-64
2020/12/31 03:59:25;;;;;;;13.67;11.90;;;3.30;99.90;;;;;;5020653;28;20205;-64
2020/12/31 04:01:52;;;;;;;14.70;11.93;;;3.30;99.90;;;;;;5020766;28;20200;-64
2020/12/31 04:04:18;;;;;;;13.40;11.50;;;3.30;99.90;;;;;;5025978;28;20207;-64
2020/12/31 04:06:46;;;;;;;15.57;11.83;;;3.30;99.90;;;;;;5032309;28;20220;-62
2020/12/31 04:09:12;;;;;;;15.53;12.97;;;3.30;99.90;;;;;;5022219;28;20197;-62
2020/12/31 04:11:39;;;;;;;15.60;12.17;;;3.30;99.90;;;;;;5019759;28;20544;-64
2020/12/31 04:14:05;;;;;;;13.63;12.23;;;3.30;99.90;;;;;;5020956;28;20227;-63
2020/12/31 04:16:32;;;;;;;17.03;12.63;;;3.30;99.90;;;;;;5021082;28;20200;-64
2020/12/31 04:18:58;;;;;;;15.40;12.90;;;3.30;99.90;;;;;;5020037;28;20204;-63
2020/12/31 04:21:24;;;;;;;16.27;13.70;;;3.30;99.90;;;;;;5020961;28;20203;-63
2020/12/31 04:23:52;;;;;;;20.30;15.03;;;3.30;99.90;;;;;;5027054;28;20204;-64
2020/12/31 04:26:18;;;;;;;23.10;15.27;;;3.20;99.90;;;;;;5034012;28;20236;-63
2020/12/31 04:28:45;;;;;;;18.30;14.77;;;3.30;99.90;;;;;;5034295;28;20204;-62
2020/12/31 04:31:11;;;;;;;17.77;14.30;;;3.30;99.90;;;;;;5033478;28;20213;-63
2020/12/31 04:33:38;;;;;;;16.80;14.27;;;3.30;99.90;;;;;;5032904;28;20553;-62
2020/12/31 04:36:04;;;;;;;18.57;14.10;;;3.30;99.90;;;;;;5032972;28;20208;-63
2020/12/31 04:38:31;;;;;;;17.90;15.57;;;3.30;99.90;;;;;;5027854;28;20547;-64
2020/12/31 04:41:02;;;;;;;19.67;15.43;;;3.20;99.90;;;;;;5032898;28;20197;-63
2020/12/31 04:43:29;;;;;;;19.10;15.63;;;3.20;99.90;;;;;;5031891;28;20275;-62
2020/12/31 04:45:56;;;;;;;17.30;14.70;;;3.10;99.90;;;;;;5032692;28;20926;-64
2020/12/31 04:48:27;;;;;;;19.80;14.87;;;3.10;99.90;;;;;;5030695;28;20200;-62
2020/12/31 04:50:57;;;;;;;18.93;13.67;;;3.10;99.90;;;;;;5026642;28;20216;-63
2020/12/31 04:53:24;;;;;;;15.50;13.83;;;3.00;99.90;;;;;;5024716;28;20204;-62
2020/12/31 04:55:50;;;;;;;19.87;14.07;;;3.00;99.90;;;;;;5021402;28;22623;-65
2020/12/31 04:58:18;;;;;;;16.73;13.83;;;3.00;99.90;;;;;;5020067;28;20552;-62
2020/12/31 05:00:45;;;;;;;16.13;13.40;;;3.00;99.90;;;;;;5022909;28;20224;-62
2020/12/31 05:03:12;;;;;;;17.13;13.83;;;3.00;99.90;;;;;;5015716;28;20208;-64
2020/12/31 05:05:39;;;;;;;18.10;14.40;;;3.10;99.90;;;;;;5032755;28;20250;-62
2020/12/31 05:08:08;;;;;;;18.40;13.53;;;3.10;99.90;;;;;;5029131;28;20244;-64
2020/12/31 05:10:34;;;;;;;16.53;13.13;;;3.20;99.90;;;;;;5021529;28;20296;-63
2020/12/31 05:13:03;;;;;;;20.10;14.63;;;3.20;99.90;;;;;;5018370;28;20212;-63
2020/12/31 05:15:38;;;;;;;17.47;13.17;;;3.20;99.90;;;;;;5019468;28;20922;-62
2020/12/31 05:18:21;;;;;;;19.40;13.83;;;3.20;99.90;;;;;;5016540;28;20248;-62
2020/12/31 05:20:50;;;;;;;17.13;14.00;;;3.10;99.90;;;;;;5017477;28;20204;-64
2020/12/31 05:23:18;;;;;;;16.43;13.10;;;3.20;99.90;;;;;;5018577;28;20665;-62
2020/12/31 05:25:45;;;;;;;17.77;13.33;;;3.10;99.90;;;;;;5025068;28;20235;-62
2020/12/31 05:28:23;;;;;;;17.90;13.13;;;3.10;99.90;;;;;;5031337;28;20696;-63
2020/12/31 05:30:52;;;;;;;16.23;13.03;;;3.10;99.90;;;;;;5018042;28;20219;-62
2020/12/31 05:33:29;;;;;;;17.67;12.77;;;3.10;99.90;;;;;;5021899;28;20979;-63
2020/12/31 05:36:16;;;;;;;20.77;13.30;;;3.10;99.90;;;;;;5019598;28;20196;-63
2020/12/31 05:38:44;;;;;;;14.50;12.40;;;3.00;99.90;;;;;;5018520;28;20208;-62
2020/12/31 05:41:11;;;;;;;16.30;12.37;;;3.00;99.90;;;;;;5016896;28;20208;-64
2020/12/31 05:43:39;;;;;;;17.30;13.27;;;3.00;99.90;;;;;;5016287;28;20212;-65
2020/12/31 05:46:08;;;;;;;14.10;11.87;;;3.00;99.90;;;;;;5015463;28;20307;-63
2020/12/31 05:48:35;;;;;;;14.87;11.50;;;2.90;99.90;;;;;;5015903;28;20223;-63
2020/12/31 05:51:20;;;;;;;15.73;12.63;;;2.80;99.90;;;;;;5022013;28;20254;-62
2020/12/31 05:53:48;;;;;;;14.60;11.43;;;2.80;99.90;;;;;;5016125;28;20201;-64
2020/12/31 05:56:16;;;;;;;14.37;11.43;;;2.80;99.90;;;;;;5014079;28;20709;-64
2020/12/31 05:58:45;;;;;;;14.33;11.40;;;2.70;99.90;;;;;;5014768;28;20306;-62
2020/12/31 06:01:15;;;;;;;14.90;12.07;;;2.70;99.90;;;;;;5015059;28;20204;-64
2020/12/31 06:03:49;;;;;;;13.83;11.57;;;2.70;99.90;;;;;;5016457;28;20223;-64
2020/12/31 06:06:21;;;;;;;14.43;11.50;;;2.60;99.90;;;;;;5018222;28;20258;-64
2020/12/31 06:09:05;;;;;;;14.43;11.57;;;2.60;99.90;;;;;;5019992;28;20205;-63
2020/12/31 06:11:38;;;;;;;14.23;10.80;;;2.60;99.90;;;;;;5015026;28;20280;-64
2020/12/31 06:14:05;;;;;;;15.93;11.70;;;2.60;99.90;;;;;;5016543;28;20691;-64
2020/12/31 06:16:39;;;;;;;20.17;11.50;;;2.60;99.90;;;;;;5019419;28;20203;-62
2020/12/31 06:19:30;;;;;;;12.73;11.37;;;2.60;99.90;;;;;;5018836;28;20222;-64
2020/12/31 06:22:01;;;;;;;14.67;11.00;;;2.60;99.90;;;;;;5013686;28;20677;-62
2020/12/31 06:24:38;;;;;;;14.00;11.33;;;2.60;99.90;;;;;;5020995;28;22037;-62
2020/12/31 06:27:07;;;;;;;14.40;11.10;;;2.60;99.90;;;;;;5018697;28;20236;-62
2020/12/31 06:29:41;;;;;;;33.90;28.60;;;2.50;99.90;;;;;;5028140;28;20196;-64
2020/12/31 06:32:17;;;;;;;32.00;27.83;;;2.50;99.90;;;;;;5023977;28;20226;-64
2020/12/31 06:34:43;;;;;;;24.27;17.57;;;2.60;99.90;;;;;;5019126;28;20254;-64
2020/12/31 06:37:11;;;;;;;15.77;13.53;;;2.60;99.90;;;;;;5019244;28;20200;-64
2020/12/31 06:39:38;;;;;;;14.50;11.90;;;2.60;99.90;;;;;;5017846;28;20247;-63
2020/12/31 06:42:04;;;;;;;18.23;12.17;;;2.50;99.90;;;;;;5019850;28;20197;-62
2020/12/31 06:44:31;;;;;;;17.50;13.20;;;2.50;99.90;;;;;;5017734;28;20201;-64
2020/12/31 06:46:58;;;;;;;17.70;13.17;;;2.60;99.90;;;;;;5018506;28;20228;-64
2020/12/31 06:49:53;;;;;;;15.23;12.30;;;2.50;99.90;;;;;;5018093;28;20214;-63
2020/12/31 06:52:21;;;;;;;16.33;12.20;;;2.50;99.90;;;;;;5019029;28;20215;-62
2020/12/31 06:54:48;;;;;;;15.77;11.57;;;2.50;99.90;;;;;;5016175;28;20275;-63
2020/12/31 06:57:37;;;;;;;14.17;11.83;;;2.50;99.90;;;;;;5018798;28;20297;-63
2020/12/31 07:00:04;;;;;;;16.37;11.53;;;2.50;99.90;;;;;;5017467;28;20246;-63
2020/12/31 07:02:44;;;;;;;15.77;11.90;;;2.50;99.90;;;;;;5018841;28;20242;-62
2020/12/31 07:05:21;;;;;;;16.10;11.77;;;2.50;99.90;;;;;;5016570;28;20200;-64
2020/12/31 07:07:48;;;;;;;18.40;11.93;;;2.40;99.90;;;;;;5018176;28;20274;-64
2020/12/31 07:10:15;;;;;;;16.17;11.50;;;2.40;99.90;;;;;;5019882;28;20662;-63
2020/12/31 07:12:45;;;;;;;14.20;11.93;;;2.30;99.90;;;;;;5023689;28;20653;-62
2020/12/31 07:15:12;;;;;;;13.30;11.57;;;2.30;99.90;;;;;;5018209;28;20242;-63
2020/12/31 07:17:41;;;;;;;16.30;12.43;;;2.30;99.90;;;;;;5020796;28;20218;-63
2020/12/31 07:20:09;;;;;;;13.23;11.60;;;2.30;99.90;;;;;;5018612;28;20205;-64
2020/12/31 07:22:38;;;;;;;14.77;10.97;;;2.30;99.90;;;;;;5020900;28;20262;-63
2020/12/31 07:25:07;;;;;;;16.67;12.10;;;2.30;99.90;;;;;;5021147;28;20258;-62
2020/12/31 07:27:35;;;;;;;14.10;10.90;;;2.30;99.90;;;;;;5024317;28;20328;-64
2020/12/31 07:30:11;;;;;;;14.77;11.47;;;2.30;99.90;;;;;;5029741;28;20215;-63
2020/12/31 07:33:00;;;;;;;14.80;11.27;;;2.30;99.90;;;;;;5015787;28;20196;-63
2020/12/31 07:35:32;;;;;;;13.50;11.00;;;2.30;99.90;;;;;;5023396;28;20200;-63
2020/12/31 07:38:01;;;;;;;15.03;11.60;;;2.30;99.90;;;;;;5033180;28;20196;-64
2020/12/31 07:40:33;;;;;;;15.57;11.57;;;2.20;99.90;;;;;;5019848;28;20219;-63
2020/12/31 07:43:00;;;;;;;16.33;12.63;;;2.20;99.90;;;;;;5033266;28;20223;-62
2020/12/31 07:45:27;;;;;;;17.17;12.43;;;2.20;99.90;;;;;;5035114;28;20204;-64
2020/12/31 07:47:55;;;;;;;14.67;11.73;;;2.20;99.90;;;;;;5026083;28;20707;-64
2020/12/31 07:50:22;;;;;;;17.47;12.00;;;2.20;99.90;;;;;;5020628;28;20197;-64
2020/12/31 07:52:48;;;;;;;15.97;12.07;;;2.30;99.90;;;;;;5035094;28;20557;-63
2020/12/31 07:55:16;;;;;;;17.27;11.70;;;2.20;99.90;;;;;;5030146;28;20201;-62
2020/12/31 07:57:43;;;;;;;16.10;11.93;;;2.20;99.90;;;;;;5033801;28;20200;-63
2020/12/31 08:00:13;;;;;;;16.27;12.10;;;2.10;99.90;;;;;;5022476;28;20227;-63
2020/12/31 08:02:45;;;;;;;14.43;10.97;;;2.10;99.90;;;;;;5034848;28;20238;-63
2020/12/31 08:05:13;;;;;;;15.93;11.80;;;2.10;99.90;;;;;;5033173;28;20192;-63
2020/12/31 08:07:41;;;;;;;16.63;12.10;;;2.00;99.90;;;;;;5033323;28;20235;-63
2020/12/31 08:10:08;;;;;;;14.93;11.73;;;1.90;99.90;;;;;;5033064;28;20223;-64
2020/12/31 08:12:37;;;;;;;17.73;12.57;;;1.90;99.90;;;;;;5034794;28;20193;-63
2020/12/31 08:15:03;;;;;;;16.77;12.40;;;1.90;99.90;;;;;;5032640;28;20214;-63
2020/12/31 08:17:30;;;;;;;15.37;11.80;;;1.90;99.90;;;;;;5031317;28;20439;-63
2020/12/31 08:19:57;;;;;;;15.77;12.10;;;1.80;99.90;;;;;;5030716;28;20223;-64
2020/12/31 08:22:32;;;;;;;18.20;12.90;;;1.80;99.90;;;;;;5033633;28;20201;-64
2020/12/31 08:25:03;;;;;;;17.03;12.27;;;1.80;99.90;;;;;;5022462;28;20192;-63
2020/12/31 08:27:31;;;;;;;16.03;11.87;;;1.80;99.90;;;;;;5033016;28;20220;-63
2020/12/31 08:29:59;;;;;;;15.97;12.33;;;1.80;99.90;;;;;;5034350;28;20250;-63
2020/12/31 08:32:27;;;;;;;17.10;12.27;;;1.70;99.90;;;;;;5034099;28;20204;-62
2020/12/31 08:34:56;;;;;;;15.30;12.00;;;1.70;99.90;;;;;;5034272;28;20219;-62
2020/12/31 08:37:24;;;;;;;15.13;12.13;;;1.70;99.90;;;;;;5031061;28;20636;-64
2020/12/31 08:39:52;;;;;;;14.43;11.90;;;1.70;99.90;;;;;;5033067;28;20203;-62
2020/12/31 08:42:24;;;;;;;16.27;12.23;;;1.60;99.90;;;;;;5030531;28;20201;-62
2020/12/31 08:44:56;;;;;;;15.17;12.23;;;1.50;99.90;;;;;;5033851;28;20200;-62
2020/12/31 08:47:25;;;;;;;20.13;12.70;;;1.50;99.90;;;;;;5030287;28;20224;-62
2020/12/31 08:49:57;;;;;;;17.73;12.63;;;1.50;99.90;;;;;;5034091;28;20223;-62
2020/12/31 08:52:25;;;;;;;19.97;13.90;;;1.60;99.90;;;;;;5031242;28;20200;-63
2020/12/31 08:55:11;;;;;;;18.50;13.43;;;1.60;99.90;;;;;;5025884;28;20200;-61
2020/12/31 08:57:38;;;;;;;16.43;12.73;;;1.70;99.90;;;;;;5015727;28;20193;-62
2020/12/31 09:00:06;;;;;;;22.40;14.53;;;1.70;99.90;;;;;;5023650;28;20211;-62
2020/12/31 09:02:33;;;;;;;17.40;13.60;;;1.80;99.90;;;;;;5032224;28;20204;-62
2020/12/31 09:05:17;;;;;;;19.10;13.33;;;1.90;99.90;;;;;;5033425;28;20200;-62
2020/12/31 09:07:43;;;;;;;19.53;13.80;;;2.00;99.90;;;;;;5019821;28;20616;-63
2020/12/31 09:10:18;;;;;;;16.40;13.07;;;2.10;99.90;;;;;;5027977;28;20204;-63
2020/12/31 09:12:45;;;;;;;19.50;14.20;;;2.20;99.90;;;;;;5027881;28;20200;-63
2020/12/31 09:15:19;;;;;;;19.60;14.30;;;2.30;99.90;;;;;;5032079;28;20658;-63
2020/12/31 09:17:48;;;;;;;19.53;14.67;;;2.30;99.90;;;;;;5029186;28;20201;-64
2020/12/31 09:20:22;;;;;;;22.30;14.53;;;2.30;99.90;;;;;;5030628;28;20542;-63
2020/12/31 09:22:49;;;;;;;18.77;14.27;;;2.40;99.90;;;;;;5032544;28;20184;-62
2020/12/31 09:25:16;;;;;;;19.43;14.07;;;2.40;99.90;;;;;;5030948;28;20228;-62
2020/12/31 09:27:45;;;;;;;18.30;13.60;;;2.30;99.90;;;;;;5030767;28;20224;-62
2020/12/31 09:30:13;;;;;;;20.67;14.17;;;2.20;99.90;;;;;;5029740;28;20649;-63
2020/12/31 09:32:44;;;;;;;17.43;13.77;;;2.20;99.90;;;;;;5031277;28;20287;-63
2020/12/31 09:35:12;;;;;;;18.60;14.37;;;2.20;99.90;;;;;;5027715;28;20262;-62
2020/12/31 09:37:50;;;;;;;20.43;14.37;;;2.10;99.90;;;;;;5027346;28;20196;-64
2020/12/31 09:40:16;;;;;;;19.20;13.43;;;2.10;99.90;;;;;;5018647;28;20554;-63
2020/12/31 09:42:43;;;;;;;18.37;13.83;;;2.10;99.90;;;;;;5031615;28;20278;-62
2020/12/31 09:45:10;;;;;;;17.37;14.47;;;2.20;99.90;;;;;;5025719;28;20196;-62
2020/12/31 09:47:37;;;;;;;21.27;15.33;;;2.20;99.90;;;;;;5028870;28;20231;-62
2020/12/31 09:50:05;;;;;;;20.57;15.50;;;2.20;99.90;;;;;;5032296;28;20204;-62
2020/12/31 09:52:33;;;;;;;22.10;16.30;;;2.30;99.90;;;;;;5015456;28;20200;-63
2020/12/31 09:55:00;;;;;;;24.10;16.13;;;2.40;99.90;;;;;;5030297;28;20227;-62
2020/12/31 09:57:27;;;;;;;20.17;15.73;;;2.40;99.90;;;;;;5029817;28;20208;-62
2020/12/31 09:59:53;;;;;;;24.67;17.43;;;2.40;99.90;;;;;;5031697;28;20696;-62
2020/12/31 10:02:20;;;;;;;21.90;16.50;;;2.30;99.90;;;;;;5026386;28;20209;-62
2020/12/31 10:04:46;;;;;;;24.33;16.47;;;2.30;99.90;;;;;;5032399;28;20658;-63
2020/12/31 10:07:13;;;;;;;24.23;16.20;;;2.20;99.90;;;;;;5019222;28;20252;-62
2020/12/31 10:09:40;;;;;;;27.73;18.27;;;2.30;99.90;;;;;;5012886;28;20197;-62
2020/12/31 10:12:07;;;;;;;26.10;19.07;;;2.30;99.90;;;;;;5024350;28;20242;-62
2020/12/31 10:14:33;;;;;;;27.23;18.13;;;2.30;99.90;;;;;;5032323;28;20661;-62
2020/12/31 10:17:00;;;;;;;24.20;18.73;;;2.40;99.90;;;;;;5021925;28;20193;-62
2020/12/31 10:19:26;;;;;;;29.47;20.53;;;2.60;99.90;;;;;;5018434;28;20204;-62
2020/12/31 10:21:53;;;;;;;33.97;23.47;;;3.00;99.90;;;;;;5021052;28;20207;-62
2020/12/31 10:24:19;;;;;;;38.37;26.77;;;3.60;99.90;;;;;;5025469;28;20655;-62
2020/12/31 10:26:47;;;;;;;39.77;28.83;;;3.90;99.90;;;;;;5018827;28;20232;-63
2020/12/31 10:29:15;;;;;;;36.43;24.93;;;4.20;99.90;;;;;;5031819;28;20200;-62
2020/12/31 10:31:42;;;;;;;32.30;24.90;;;4.20;99.90;;;;;;5032566;28;20211;-62
2020/12/31 10:34:10;;;;;;;33.90;23.70;;;4.00;99.90;;;;;;5030908;28;20299;-62
2020/12/31 10:36:36;;;;;;;35.80;22.20;;;4.20;99.90;;;;;;5025396;28;20239;-64
2020/12/31 10:39:03;;;;;;;30.60;21.80;;;4.30;99.90;;;;;;5030377;28;20211;-62
2020/12/31 10:41:31;;;;;;;25.60;19.40;;;4.50;99.90;;;;;;5026862;28;20708;-62
2020/12/31 10:43:59;;;;;;;28.07;21.73;;;5.20;99.90;;;;;;5031444;28;20207;-63
2020/12/31 10:46:27;;;;;;;24.50;18.07;;;6.00;99.90;;;;;;5029557;28;20200;-63
2020/12/31 10:48:54;;;;;;;17.67;14.63;;;6.30;99.90;;;;;;5028136;28;20204;-65
2020/12/31 10:51:21;;;;;;;15.53;13.20;;;6.00;99.90;;;;;;5025418;28;20205;-64
2020/12/31 10:53:47;;;;;;;14.57;12.67;;;5.70;99.90;;;;;;5025864;28;20200;-63
2020/12/31 10:56:19;;;;;;;15.67;12.00;;;5.40;99.90;;;;;;5029561;28;20200;-62
2020/12/31 10:58:46;;;;;;;15.27;12.43;;;5.10;99.90;;;;;;5031322;28;20247;-65
2020/12/31 11:01:15;;;;;;;14.63;13.10;;;5.00;99.90;;;;;;5025098;28;20207;-64
2020/12/31 11:03:43;;;;;;;17.17;13.30;;;4.80;99.90;;;;;;5021255;28;20248;-64
2020/12/31 11:06:10;;;;;;;17.83;13.93;;;4.80;99.90;;;;;;5021737;28;20291;-63
2020/12/31 11:08:37;;;;;;;15.53;13.80;;;4.80;99.90;;;;;;5023156;28;20577;-64
2020/12/31 11:11:03;;;;;;;18.80;15.00;;;4.90;99.90;;;;;;5026126;28;20203;-64
2020/12/31 11:13:30;;;;;;;16.80;15.00;;;5.10;99.90;;;;;;5027835;28;20208;-65
2020/12/31 11:15:56;;;;;;;16.30;14.60;;;5.20;99.90;;;;;;5028187;28;20212;-63
2020/12/31 11:18:24;;;;;;;17.60;14.40;;;5.20;99.90;;;;;;5028028;28;20204;-65
2020/12/31 11:20:53;;;;;;;14.77;13.23;;;5.30;99.90;;;;;;5024165;28;20208;-65
2020/12/31 11:23:20;;;;;;;16.97;13.27;;;5.30;99.90;;;;;;5027504;28;20235;-65
2020/12/31 11:25:46;;;;;;;16.47;13.73;;;5.30;99.90;;;;;;5030154;28;20228;-65
2020/12/31 11:28:13;;;;;;;18.07;13.77;;;5.20;99.90;;;;;;5033858;28;20231;-64
2020/12/31 11:30:39;;;;;;;17.13;13.13;;;5.20;99.90;;;;;;5029073;28;20193;-65
2020/12/31 11:33:06;;;;;;;17.00;13.30;;;5.20;99.90;;;;;;5033332;28;20200;-64
2020/12/31 11:35:33;;;;;;;17.00;13.80;;;5.10;99.90;;;;;;5037017;28;20200;-65
2020/12/31 11:38:00;;;;;;;15.17;12.43;;;5.30;99.90;;;;;;5036441;28;20669;-65
2020/12/31 11:40:26;;;;;;;15.00;12.60;;;5.30;99.90;;;;;;5034434;28;20211;-65
2020/12/31 11:42:53;;;;;;;16.00;13.43;;;5.40;99.90;;;;;;5023469;28;20204;-65
2020/12/31 11:45:19;;;;;;;15.73;13.10;;;5.50;99.90;;;;;;5034373;28;20204;-65
2020/12/31 11:47:46;;;;;;;16.10;12.60;;;5.70;99.90;;;;;;5028631;28;20224;-66
2020/12/31 11:50:13;;;;;;;15.67;12.23;;;6.00;99.90;;;;;;5031261;28;20205;-64
2020/12/31 11:52:40;;;;;;;12.67;11.37;;;6.30;99.90;;;;;;5030512;28;20208;-64
2020/12/31 11:55:07;;;;;;;13.23;11.17;;;6.80;99.90;;;;;;5027928;28;20254;-66
2020/12/31 11:57:34;;;;;;;10.73;9.60;;;7.20;99.90;;;;;;5036125;28;20212;-65
2020/12/31 12:00:00;;;;;;;11.50;9.77;;;7.60;99.90;;;;;;5028039;28;20209;-65
2020/12/31 12:02:27;;;;;;;10.27;8.70;;;7.90;99.90;;;;;;5024662;28;20231;-66
2020/12/31 12:04:53;;;;;;;9.77;8.43;;;8.00;99.90;;;;;;5029025;28;20251;-67
2020/12/31 12:07:20;;;;;;;9.57;8.57;;;8.10;99.90;;;;;;5026095;28;20225;-66
2020/12/31 12:09:47;;;;;;;10.03;8.20;;;8.10;99.90;;;;;;5024946;28;20215;-67
2020/12/31 12:12:14;;;;;;;9.57;8.57;;;8.20;99.90;;;;;;5023952;28;20271;-64
2020/12/31 12:14:40;;;;;;;9.63;8.07;;;8.30;99.90;;;;;;5030917;28;20653;-63
2020/12/31 12:17:07;;;;;;;10.17;8.57;;;8.50;99.90;;;;;;5030572;28;20226;-67
2020/12/31 12:19:33;;;;;;;9.47;8.40;;;8.80;99.90;;;;;;5027757;28;20200;-67
2020/12/31 12:22:00;;;;;;;10.33;8.73;;;9.20;99.90;;;;;;5033035;28;20531;-64
2020/12/31 12:24:27;;;;;;;12.67;8.63;;;10.00;99.90;;;;;;5029613;28;20227;-68
2020/12/31 12:26:55;;;;;;;11.37;7.73;;;10.70;99.90;;;;;;5030109;28;20704;-66
2020/12/31 12:29:21;;;;;;;8.30;7.30;;;11.60;99.90;;;;;;5024475;28;20208;-64
2020/12/31 12:31:48;;;;;;;11.57;7.10;;;12.20;99.90;;;;;;5031112;28;20219;-63
2020/12/31 12:34:15;;;;;;;7.30;6.37;;;12.60;99.90;;;;;;5028411;28;20201;-66
2020/12/31 12:36:43;;;;;;;6.00;5.40;;;12.70;99.90;;;;;;5028446;28;20243;-64
2020/12/31 12:39:09;;;;;;;5.87;5.27;;;13.00;99.90;;;;;;5029634;28;20201;-64
2020/12/31 12:41:36;;;;;;;8.13;5.50;;;13.20;99.90;;;;;;5027920;28;20223;-66
2020/12/31 12:44:03;;;;;;;6.03;4.93;;;13.20;99.90;;;;;;5029600;28;20223;-64